STL weather

St Louis Lambert International Airport
St Louis, Missouri, United States

Public forecast

Using degrees Fahrenheit for public forecast. Weather courtesy of forecast.io.

METAR (pilot weather report)

Retrieved 2018/12/13 03:51 UTC (15 minutes ago):

KSTL 130351Z 12006KT 10SM CLR 03/M03 A2993 RMK AO2 SLP140 T00281028

TAF (pilot weather forecast)

Forecast is more than 12 hours old.

Retrieved 2018/12/12 00:27 UTC (1 day ago):

TAF KSTL 122325Z 1300/1406 VRB04KT P6SM FEW250 FM130500 VRB04KT P6SM BKN035 FM130900 14005KT P6SM OVC025 FM131200 13006KT 6SM BR VCSH OVC010 FM131600 13007KT 4SM -RA BR OVC006 FM131900 11006KT 2SM RA OVC006